createdAt,value
2022-08-01T00:00:57.178Z,64.17
2022-08-01T00:03:25.055Z,63.50
2022-08-01T00:05:52.984Z,63.50
2022-08-01T00:08:20.939Z,63.76
2022-08-01T00:10:48.829Z,63.10
2022-08-01T00:13:18.055Z,64.01
2022-08-01T00:15:51.874Z,64.00
2022-08-01T00:18:22.684Z,63.57
2022-08-01T00:20:50.643Z,63.06
2022-08-01T00:23:18.515Z,61.79
2022-08-01T00:25:46.491Z,62.24
2022-08-01T00:28:14.679Z,62.10
2022-08-01T00:30:43.873Z,62.05
2022-08-01T00:33:12.784Z,62.76
2022-08-01T00:35:41.382Z,63.41
2022-08-01T00:38:09.215Z,63.00
2022-08-01T00:40:37.147Z,61.55
2022-08-01T00:43:05.381Z,62.36
2022-08-01T00:45:33.418Z,59.83
2022-08-01T00:48:02.617Z,61.90
2022-08-01T00:50:30.616Z,61.73
2022-08-01T00:53:00.349Z,63.19
2022-08-01T00:55:29.110Z,63.00
2022-08-01T00:58:03.125Z,62.94
2022-08-01T01:00:53.245Z,62.03
2022-08-01T01:03:58.012Z,62.05
2022-08-01T01:06:24.337Z,63.60
2022-08-01T01:09:04.967Z,60.93
2022-08-01T01:11:42.814Z,60.65
2022-08-01T01:14:15.752Z,60.78
2022-08-01T01:16:46.633Z,60.56
2022-08-01T01:19:22.832Z,60.28
2022-08-01T01:22:12.185Z,60.28
2022-08-01T01:24:47.119Z,60.04
2022-08-01T01:27:23.267Z,59.54
2022-08-01T01:30:00.540Z,59.66
2022-08-01T01:32:35.026Z,59.96
2022-08-01T01:35:08.567Z,60.52
2022-08-01T01:37:40.464Z,61.21
2022-08-01T01:40:11.691Z,61.08
2022-08-01T01:42:41.756Z,61.47
2022-08-01T01:45:11.520Z,61.88
2022-08-01T01:47:40.781Z,61.87
2022-08-01T01:50:11.278Z,61.48
2022-08-01T01:52:41.929Z,61.72
2022-08-01T01:55:11.781Z,62.45
2022-08-01T01:57:42.318Z,63.27
2022-08-01T02:00:13.353Z,62.47
2022-08-01T02:02:43.445Z,62.25
2022-08-01T02:05:14.434Z,62.45
2022-08-01T02:07:43.814Z,62.63
2022-08-01T02:10:13.834Z,62.46
2022-08-01T02:12:46.619Z,61.41
2022-08-01T02:15:17.587Z,62.62
2022-08-01T02:17:49.616Z,62.20
2022-08-01T02:20:18.933Z,62.22
2022-08-01T02:22:52.298Z,62.15
2022-08-01T02:25:24.890Z,62.17
2022-08-01T02:28:01.696Z,62.90
2022-08-01T02:30:36.197Z,62.98
2022-08-01T02:33:09.871Z,63.03
2022-08-01T02:36:30.095Z,63.35
2022-08-01T02:38:38.265Z,62.82
2022-08-01T02:41:10.432Z,62.56
2022-08-01T02:43:40.456Z,63.18
2022-08-01T02:46:13.746Z,63.42
2022-08-01T02:48:44.921Z,64.73
2022-08-01T02:51:14.513Z,64.98
2022-08-01T02:53:44.939Z,64.95
2022-08-01T02:56:15.507Z,64.99
2022-08-01T02:58:45.096Z,65.49
2022-08-01T03:01:17.335Z,65.88
2022-08-01T03:03:48.460Z,66.17
2022-08-01T03:06:17.800Z,66.53
2022-08-01T03:08:47.686Z,65.91
2022-08-01T03:11:17.134Z,66.07
2022-08-01T03:13:46.876Z,66.12
2022-08-01T03:16:18.830Z,66.40
2022-08-01T03:18:48.316Z,65.92
2022-08-01T03:21:16.424Z,66.20
2022-08-01T03:23:45.533Z,66.30
2022-08-01T03:26:14.090Z,65.89
2022-08-01T03:28:44.026Z,65.53
2022-08-01T03:31:14.665Z,65.12
2022-08-01T03:34:10.799Z,64.31
2022-08-01T03:36:46.790Z,62.83
2022-08-01T03:39:20.208Z,62.76
2022-08-01T03:41:57.063Z,63.62
2022-08-01T03:44:28.495Z,63.94
2022-08-01T03:47:03.156Z,63.99
2022-08-01T03:49:35.331Z,64.17
2022-08-01T03:52:06.404Z,63.89
2022-08-01T03:54:37.963Z,63.91
2022-08-01T03:57:07.721Z,63.32
2022-08-01T03:59:38.895Z,63.67
2022-08-01T04:02:08.519Z,63.80
2022-08-01T04:04:38.249Z,64.25
2022-08-01T04:07:07.919Z,63.21
2022-08-01T04:09:36.319Z,62.10
2022-08-01T04:12:11.943Z,61.13
2022-08-01T04:14:40.595Z,61.55
2022-08-01T04:17:08.620Z,61.71
2022-08-01T04:19:38.103Z,61.83
2022-08-01T04:22:07.602Z,62.63
2022-08-01T04:24:38.673Z,62.91
2022-08-01T04:27:11.834Z,61.70
2022-08-01T04:29:40.611Z,61.44
2022-08-01T04:32:14.208Z,62.18
2022-08-01T04:34:48.215Z,61.29
2022-08-01T04:37:18.483Z,62.60
2022-08-01T04:39:51.225Z,62.70
2022-08-01T04:42:25.218Z,64.36
2022-08-01T04:44:59.323Z,65.27
2022-08-01T04:47:28.049Z,65.49
2022-08-01T04:49:57.980Z,64.92
2022-08-01T04:52:35.235Z,64.25
2022-08-01T04:55:03.152Z,63.25
2022-08-01T04:57:32.139Z,63.60
2022-08-01T05:00:00.293Z,63.63
2022-08-01T05:02:30.031Z,65.12
2022-08-01T05:05:00.398Z,65.50
2022-08-01T05:07:28.432Z,65.80
2022-08-01T05:09:56.290Z,64.18
2022-08-01T05:12:24.221Z,63.67
2022-08-01T05:14:52.089Z,63.57
2022-08-01T05:17:20.202Z,61.98
2022-08-01T05:19:48.156Z,62.55
2022-08-01T05:22:17.904Z,62.95
2022-08-01T05:24:47.081Z,62.03
2022-08-01T05:27:17.232Z,61.97
2022-08-01T05:29:47.301Z,62.94
2022-08-01T05:32:15.902Z,63.36
2022-08-01T05:34:44.575Z,62.73
2022-08-01T05:37:12.564Z,62.84
2022-08-01T05:39:41.880Z,63.18
2022-08-01T05:42:09.768Z,64.68
2022-08-01T05:44:37.713Z,63.39
2022-08-01T05:47:05.826Z,61.95
2022-08-01T05:49:33.785Z,60.64
2022-08-01T05:52:03.280Z,60.51
2022-08-01T05:54:31.719Z,59.25
2022-08-01T05:57:02.686Z,59.58
2022-08-01T05:59:31.250Z,58.45
2022-08-01T06:01:59.377Z,58.14
2022-08-01T06:04:27.363Z,58.80
2022-08-01T06:06:55.365Z,59.54
2022-08-01T06:09:23.548Z,58.94
2022-08-01T06:11:51.518Z,59.50
2022-08-01T06:14:20.837Z,59.37
2022-08-01T06:16:48.751Z,57.28
2022-08-01T06:19:16.652Z,56.48
2022-08-01T06:21:44.518Z,56.09
2022-08-01T06:24:12.462Z,55.75
2022-08-01T06:26:40.398Z,54.88
2022-08-01T06:29:09.956Z,55.78
2022-08-01T06:31:39.942Z,56.52
2022-08-01T06:34:08.058Z,56.17
2022-08-01T06:36:36.106Z,55.74
2022-08-01T06:39:04.138Z,56.26
2022-08-01T06:41:32.008Z,55.64
2022-08-01T06:44:03.254Z,55.26
2022-08-01T06:46:32.381Z,55.31
2022-08-01T06:49:01.838Z,55.54
2022-08-01T06:51:30.079Z,56.09
2022-08-01T06:53:58.205Z,56.65
2022-08-01T06:56:26.193Z,57.33
2022-08-01T06:58:54.133Z,57.01
2022-08-01T07:01:22.256Z,56.98
2022-08-01T07:03:54.664Z,56.93
2022-08-01T07:06:26.228Z,56.78
2022-08-01T07:08:55.208Z,54.37
2022-08-01T07:11:23.827Z,46.19
2022-08-01T07:13:52.247Z,44.57
2022-08-01T07:16:20.326Z,44.51
2022-08-01T07:18:48.293Z,42.18
2022-08-01T07:21:38.286Z,37.95
2022-08-01T07:24:12.889Z,41.56
2022-08-01T07:26:53.321Z,46.97
2022-08-01T07:29:25.337Z,50.09
2022-08-01T07:31:55.170Z,50.56
2022-08-01T07:34:25.064Z,47.89
2022-08-01T07:36:53.715Z,36.03
2022-08-01T07:39:23.077Z,33.39
2022-08-01T07:42:06.773Z,35.88
2022-08-01T07:44:36.754Z,37.15
2022-08-01T07:47:05.290Z,36.94
2022-08-01T07:49:37.686Z,39.92
2022-08-01T07:52:08.328Z,39.18
2022-08-01T07:54:37.713Z,42.16
2022-08-01T07:57:06.320Z,45.98
2022-08-01T07:59:34.322Z,46.81
2022-08-01T08:02:02.342Z,44.93
2022-08-01T08:04:30.415Z,47.67
2022-08-01T08:06:58.616Z,50.83
2022-08-01T08:09:26.567Z,54.10
2022-08-01T08:11:55.886Z,56.53
2022-08-01T08:14:32.826Z,57.40
2022-08-01T08:17:01.823Z,58.69
2022-08-01T08:19:37.493Z,58.81
2022-08-01T08:22:08.014Z,59.17
2022-08-01T08:24:36.791Z,59.37
2022-08-01T08:27:16.075Z,58.41
2022-08-01T08:29:45.042Z,57.80
2022-08-01T08:32:14.131Z,58.82
2022-08-01T08:34:42.776Z,59.34
2022-08-01T08:37:11.643Z,60.62
2022-08-01T08:39:41.765Z,58.27
2022-08-01T08:42:12.057Z,54.15
2022-08-01T08:44:43.690Z,52.40
2022-08-01T08:47:20.250Z,52.62
2022-08-01T08:49:50.225Z,47.33
2022-08-01T08:52:21.227Z,48.75
2022-08-01T08:54:50.955Z,53.09
2022-08-01T08:57:21.460Z,50.45
2022-08-01T08:59:52.985Z,54.93
2022-08-01T09:02:21.052Z,56.38
2022-08-01T09:04:51.134Z,57.66
2022-08-01T09:07:19.099Z,56.44
2022-08-01T09:09:49.244Z,55.64
2022-08-01T09:12:18.630Z,54.77
2022-08-01T09:14:47.776Z,56.05
2022-08-01T09:17:17.640Z,57.30
2022-08-01T09:19:48.903Z,57.62
2022-08-01T09:22:19.611Z,56.98
2022-08-01T09:25:00.303Z,55.31
2022-08-01T09:27:28.474Z,54.74
2022-08-01T09:30:00.490Z,54.03
2022-08-01T09:32:35.944Z,53.11
2022-08-01T09:35:31.252Z,51.98
2022-08-01T09:38:17.520Z,51.68
2022-08-01T09:40:49.915Z,44.96
2022-08-01T09:43:20.796Z,46.46
2022-08-01T09:45:50.835Z,46.35
2022-08-01T09:48:28.506Z,44.21
2022-08-01T09:51:04.661Z,36.96
2022-08-01T09:53:50.930Z,44.07
2022-08-01T09:56:20.954Z,47.16
2022-08-01T09:59:00.434Z,43.84
2022-08-01T10:01:37.520Z,46.56
2022-08-01T10:04:11.680Z,48.25
2022-08-01T10:06:41.513Z,50.48
2022-08-01T10:09:10.031Z,51.74
2022-08-01T10:11:40.138Z,52.83
2022-08-01T10:14:09.636Z,54.15
2022-08-01T10:16:38.935Z,54.45
2022-08-01T10:19:14.665Z,54.49
2022-08-01T10:21:58.091Z,55.41
2022-08-01T10:24:33.547Z,54.31
2022-08-01T10:27:08.270Z,54.41
2022-08-01T10:29:58.979Z,55.10
2022-08-01T10:32:31.164Z,54.93
2022-08-01T10:35:06.519Z,54.11
2022-08-01T10:37:35.631Z,53.80
2022-08-01T10:40:35.452Z,50.59
2022-08-01T10:43:04.792Z,51.48
2022-08-01T10:45:34.460Z,55.07
2022-08-01T10:48:11.947Z,55.56
2022-08-01T10:50:48.498Z,55.21
2022-08-01T10:53:23.269Z,52.97
2022-08-01T10:56:02.647Z,52.17
2022-08-01T10:58:39.764Z,51.28
2022-08-01T11:01:25.875Z,50.62
2022-08-01T11:04:15.606Z,49.45
2022-08-01T11:07:08.954Z,46.19
2022-08-01T11:09:47.052Z,43.23
2022-08-01T11:12:24.894Z,42.86
2022-08-01T11:15:30.110Z,41.90
2022-08-01T11:18:04.493Z,40.14
2022-08-01T11:20:39.582Z,41.66
2022-08-01T11:23:21.625Z,45.87
2022-08-01T11:26:29.295Z,46.30
2022-08-01T11:29:23.452Z,49.37
2022-08-01T11:31:53.711Z,50.75
2022-08-01T11:34:22.358Z,50.54
2022-08-01T11:36:59.535Z,47.51
2022-08-01T11:39:30.270Z,45.34
2022-08-01T11:42:20.690Z,45.00
2022-08-01T11:44:52.647Z,43.31
2022-08-01T11:47:40.882Z,43.45
2022-08-01T11:50:32.780Z,43.38
2022-08-01T11:53:02.293Z,46.51
2022-08-01T11:55:32.263Z,46.71
2022-08-01T11:58:04.652Z,47.41
2022-08-01T12:00:33.280Z,47.20
2022-08-01T12:03:04.466Z,43.83
2022-08-01T12:05:36.014Z,45.46
2022-08-01T12:08:06.211Z,46.38
2022-08-01T12:10:47.135Z,46.77
2022-08-01T12:13:19.003Z,46.95
2022-08-01T12:15:49.786Z,46.31
2022-08-01T12:18:20.456Z,44.72
2022-08-01T12:20:57.280Z,44.92
2022-08-01T12:23:25.725Z,43.80
2022-08-01T12:25:55.713Z,45.78
2022-08-01T12:28:23.973Z,45.92
2022-08-01T12:30:52.687Z,46.46
2022-08-01T12:33:23.437Z,47.24
2022-08-01T12:35:53.783Z,46.62
2022-08-01T12:38:24.062Z,48.35
2022-08-01T12:40:53.580Z,48.75
2022-08-01T12:43:29.021Z,47.14
2022-08-01T12:46:00.150Z,46.56
2022-08-01T12:48:29.340Z,48.38
2022-08-01T12:51:01.505Z,48.96
2022-08-01T12:53:40.165Z,48.78
2022-08-01T12:56:10.658Z,49.79
2022-08-01T12:58:40.709Z,51.73
2022-08-01T13:01:11.811Z,52.54
2022-08-01T13:03:40.259Z,52.08
2022-08-01T13:06:18.210Z,51.72
2022-08-01T13:08:47.133Z,50.35
2022-08-01T13:11:18.406Z,51.66
2022-08-01T13:13:50.235Z,49.84
2022-08-01T13:16:34.262Z,49.41
2022-08-01T13:19:07.636Z,49.46
2022-08-01T13:21:52.975Z,50.76
2022-08-01T13:24:28.308Z,49.57
2022-08-01T13:26:59.729Z,50.20
2022-08-01T13:29:34.070Z,51.63
2022-08-01T13:32:29.455Z,51.99
2022-08-01T13:35:07.133Z,51.91
2022-08-01T13:37:37.270Z,51.50
2022-08-01T13:40:08.295Z,50.18
2022-08-01T13:42:36.565Z,48.81
2022-08-01T13:45:14.191Z,47.07
2022-08-01T13:48:03.368Z,46.53
2022-08-01T13:50:31.092Z,47.31
2022-08-01T13:52:59.096Z,48.24
2022-08-01T13:55:31.119Z,50.00
2022-08-01T13:58:02.288Z,49.90
2022-08-01T14:00:31.821Z,50.71
2022-08-01T14:03:00.009Z,50.99
2022-08-01T14:05:28.302Z,50.30
2022-08-01T14:07:56.865Z,49.92
2022-08-01T14:10:25.377Z,49.42
2022-08-01T14:12:56.869Z,50.14
2022-08-01T14:15:38.172Z,48.88
2022-08-01T14:18:10.815Z,49.19
2022-08-01T14:20:40.773Z,48.22
2022-08-01T14:23:09.479Z,47.28
2022-08-01T14:26:03.433Z,42.64
2022-08-01T14:28:29.489Z,40.71
2022-08-01T14:30:58.689Z,42.36
2022-08-01T14:33:29.900Z,39.31
2022-08-01T14:36:06.680Z,40.12
2022-08-01T14:38:46.922Z,40.44
2022-08-01T14:41:15.409Z,39.39
2022-08-01T14:43:44.116Z,41.37
2022-08-01T14:46:13.599Z,41.18
2022-08-01T14:48:43.281Z,41.14
2022-08-01T14:51:11.573Z,42.27
2022-08-01T14:53:41.582Z,43.75
2022-08-01T14:56:15.263Z,44.80
2022-08-01T14:58:43.729Z,44.75
2022-08-01T15:01:12.180Z,43.85
2022-08-01T15:03:40.585Z,47.16
2022-08-01T15:06:12.235Z,47.50
2022-08-01T15:08:40.586Z,47.88
2022-08-01T15:11:10.413Z,49.08
2022-08-01T15:13:42.635Z,48.47
2022-08-01T15:16:11.932Z,48.92
2022-08-01T15:18:40.645Z,47.54
2022-08-01T15:21:17.189Z,45.35
2022-08-01T15:23:53.375Z,42.56
2022-08-01T15:26:21.356Z,41.19
2022-08-01T15:28:49.325Z,41.74
2022-08-01T15:31:17.281Z,42.58
2022-08-01T15:33:46.079Z,43.13
2022-08-01T15:36:15.825Z,43.12
2022-08-01T15:38:44.266Z,42.40
2022-08-01T15:41:12.493Z,44.12
2022-08-01T15:43:44.193Z,45.39
2022-08-01T15:46:13.101Z,45.75
2022-08-01T15:48:41.801Z,43.99
2022-08-01T15:51:09.950Z,42.55
2022-08-01T15:53:40.287Z,45.48
2022-08-01T15:56:08.337Z,46.47
2022-08-01T15:58:36.613Z,43.59
2022-08-01T16:01:04.727Z,43.06
2022-08-01T16:03:32.695Z,41.47
2022-08-01T16:06:01.358Z,42.49
2022-08-01T16:08:29.368Z,43.80
2022-08-01T16:10:58.598Z,43.12
2022-08-01T16:13:26.622Z,44.90
2022-08-01T16:15:54.772Z,44.68
2022-08-01T16:18:23.644Z,46.17
2022-08-01T16:20:51.630Z,46.96
2022-08-01T16:23:20.246Z,46.87
2022-08-01T16:25:48.349Z,46.78
2022-08-01T16:28:18.135Z,46.10
2022-08-01T16:30:48.905Z,45.42
2022-08-01T16:33:45.612Z,45.19
2022-08-01T16:36:17.018Z,45.91
2022-08-01T16:38:45.604Z,46.40
2022-08-01T16:41:20.152Z,48.24
2022-08-01T16:43:53.690Z,48.67
2022-08-01T16:46:23.945Z,48.44
2022-08-01T16:48:51.916Z,48.92
2022-08-01T16:51:20.061Z,48.74
2022-08-01T16:53:47.978Z,48.89
2022-08-01T16:56:16.164Z,48.46
2022-08-01T16:58:44.088Z,48.52
2022-08-01T17:01:59.738Z,47.74
2022-08-01T17:04:03.018Z,48.35
2022-08-01T17:06:31.529Z,48.16
2022-08-01T17:08:59.873Z,48.24
2022-08-01T17:11:28.070Z,49.61
2022-08-01T17:13:56.204Z,48.13
2022-08-01T17:16:25.593Z,48.16
2022-08-01T17:18:54.050Z,48.39
2022-08-01T17:21:22.016Z,47.86
2022-08-01T17:23:50.256Z,47.68
2022-08-01T17:26:18.114Z,48.67
2022-08-01T17:28:46.100Z,48.78
2022-08-01T17:31:13.982Z,48.73
2022-08-01T17:33:46.042Z,48.63
2022-08-01T17:36:17.755Z,48.91
2022-08-01T17:38:45.882Z,49.34
2022-08-01T17:41:14.180Z,49.34
2022-08-01T17:43:42.237Z,49.74
2022-08-01T17:46:10.289Z,50.39
2022-08-01T17:48:38.213Z,50.68
2022-08-01T17:51:07.541Z,50.86
2022-08-01T17:53:35.831Z,51.85
2022-08-01T17:56:05.828Z,52.46
2022-08-01T17:58:51.275Z,53.30
2022-08-01T18:01:21.200Z,53.64
2022-08-01T18:03:49.497Z,53.14
2022-08-01T18:06:23.421Z,53.57
2022-08-01T18:08:55.585Z,53.82
2022-08-01T18:11:27.083Z,54.19
2022-08-01T18:13:56.890Z,54.25
2022-08-01T18:16:27.813Z,54.24
2022-08-01T18:18:56.077Z,54.21
2022-08-01T18:21:25.478Z,55.33
2022-08-01T18:23:53.481Z,54.78
2022-08-01T18:26:21.677Z,56.16
2022-08-01T18:28:49.931Z,56.54
2022-08-01T18:31:20.422Z,57.33
2022-08-01T18:33:49.709Z,57.19
2022-08-01T18:36:32.846Z,57.76
2022-08-01T18:39:07.102Z,58.59
2022-08-01T18:41:39.093Z,59.67
2022-08-01T18:44:09.027Z,59.82
2022-08-01T18:46:38.847Z,60.19
2022-08-01T18:49:07.986Z,61.61
2022-08-01T18:51:42.967Z,61.31
2022-08-01T18:54:13.390Z,62.62
2022-08-01T18:56:42.199Z,62.66
2022-08-01T18:59:10.397Z,63.05
2022-08-01T19:01:39.833Z,63.07
2022-08-01T19:04:08.253Z,62.62
2022-08-01T19:06:36.573Z,63.62
2022-08-01T19:09:05.142Z,63.45
2022-08-01T19:11:35.391Z,62.84
2022-08-01T19:14:04.308Z,63.21
2022-08-01T19:16:32.529Z,63.09
2022-08-01T19:19:01.810Z,62.65
2022-08-01T19:21:33.040Z,63.01
2022-08-01T19:24:22.729Z,63.93
2022-08-01T19:26:55.470Z,63.63
2022-08-01T19:29:35.060Z,63.34
2022-08-01T19:32:06.807Z,63.92
2022-08-01T19:34:37.510Z,64.41
2022-08-01T19:37:05.816Z,64.86
2022-08-01T19:39:33.979Z,64.92
2022-08-01T19:42:04.156Z,65.53
2022-08-01T19:44:32.822Z,66.24
2022-08-01T19:47:01.870Z,66.12
2022-08-01T19:49:29.749Z,65.80
2022-08-01T19:52:02.381Z,66.01
2022-08-01T19:54:34.091Z,65.79
2022-08-01T19:57:05.913Z,66.45
2022-08-01T19:59:36.895Z,66.32
2022-08-01T20:02:05.656Z,66.40
2022-08-01T20:04:34.699Z,66.58
2022-08-01T20:07:04.544Z,66.93
2022-08-01T20:09:33.514Z,67.53
2022-08-01T20:12:02.984Z,67.59
2022-08-01T20:14:30.862Z,67.26
2022-08-01T20:16:58.759Z,67.19
2022-08-01T20:19:27.397Z,67.84
2022-08-01T20:22:02.778Z,67.80
2022-08-01T20:24:40.973Z,67.60
2022-08-01T20:27:13.050Z,67.73
2022-08-01T20:29:41.998Z,67.61
2022-08-01T20:32:10.273Z,67.50
2022-08-01T20:34:40.267Z,67.49
2022-08-01T20:37:12.852Z,68.00
2022-08-01T20:39:43.827Z,67.86
2022-08-01T20:42:13.858Z,68.10
2022-08-01T20:44:42.822Z,68.95
2022-08-01T20:47:11.463Z,68.77
2022-08-01T20:49:39.630Z,68.28
2022-08-01T20:52:11.726Z,68.00
2022-08-01T20:54:41.537Z,68.52
2022-08-01T20:57:16.983Z,68.46
2022-08-01T20:59:55.977Z,68.02
2022-08-01T21:02:37.430Z,68.38
2022-08-01T21:05:07.447Z,67.98
2022-08-01T21:07:39.735Z,68.25
2022-08-01T21:10:10.026Z,68.27
2022-08-01T21:12:51.252Z,68.40
2022-08-01T21:15:28.178Z,68.30
2022-08-01T21:18:02.556Z,68.92
2022-08-01T21:20:33.274Z,69.48
2022-08-01T21:23:11.218Z,69.44
2022-08-01T21:25:39.171Z,69.26
2022-08-01T21:28:08.527Z,69.48
2022-08-01T21:30:37.420Z,69.14
2022-08-01T21:33:12.060Z,69.54
2022-08-01T21:35:41.765Z,69.71
2022-08-01T21:38:10.580Z,69.71
2022-08-01T21:40:38.844Z,69.18
2022-08-01T21:43:09.480Z,69.24
2022-08-01T21:45:39.294Z,69.15
2022-08-01T21:48:26.883Z,68.79
2022-08-01T21:50:59.299Z,69.71
2022-08-01T21:53:38.795Z,69.64
2022-08-01T21:56:22.422Z,69.67
2022-08-01T21:58:57.382Z,70.14
2022-08-01T22:01:33.688Z,70.01
2022-08-01T22:04:28.258Z,70.25
2022-08-01T22:06:58.146Z,70.46
2022-08-01T22:09:29.829Z,70.77
2022-08-01T22:12:09.036Z,70.64
2022-08-01T22:14:41.571Z,70.48
2022-08-01T22:17:12.723Z,70.77
2022-08-01T22:19:45.651Z,70.91
2022-08-01T22:22:44.537Z,71.12
2022-08-01T22:25:03.236Z,71.12
2022-08-01T22:28:05.700Z,70.67
2022-08-01T22:30:21.796Z,70.23
2022-08-01T22:33:07.365Z,69.45
2022-08-01T22:35:40.113Z,69.07
2022-08-01T22:38:09.724Z,68.90
2022-08-01T22:40:44.662Z,69.14
2022-08-01T22:43:19.402Z,69.99
2022-08-01T22:45:57.170Z,70.29
2022-08-01T22:48:32.776Z,69.70
2022-08-01T22:51:07.747Z,69.68
2022-08-01T22:53:43.734Z,69.49
2022-08-01T22:56:12.854Z,69.98
2022-08-01T22:58:42.266Z,70.00
2022-08-01T23:01:20.990Z,70.19
2022-08-01T23:03:51.891Z,70.51
2022-08-01T23:06:25.055Z,70.35
2022-08-01T23:08:56.653Z,70.20
2022-08-01T23:11:25.304Z,70.90
2022-08-01T23:13:53.619Z,71.53
2022-08-01T23:16:23.040Z,71.67
2022-08-01T23:18:55.065Z,71.61
2022-08-01T23:21:23.980Z,71.71
2022-08-01T23:23:52.307Z,70.86
2022-08-01T23:26:21.046Z,70.68
2022-08-01T23:28:49.481Z,70.70
2022-08-01T23:31:18.249Z,70.74
2022-08-01T23:33:48.088Z,70.90
2022-08-01T23:36:17.531Z,70.85
2022-08-01T23:38:45.879Z,70.53
2022-08-01T23:41:15.855Z,70.81
2022-08-01T23:43:52.346Z,70.37
2022-08-01T23:46:20.617Z,70.55
2022-08-01T23:48:49.835Z,70.26
2022-08-01T23:51:24.776Z,70.65
2022-08-01T23:53:53.332Z,70.97
2022-08-01T23:56:25.101Z,70.85
2022-08-01T23:58:53.606Z,71.36
